Flight Track Log - Related Links

Times and Time Zones

All times are in EST time to prevent confusion due to time zone crossing. See the SWA4505 flight status page for this flight to view local times or setup timezone preferences in your user account.

Time Position Orientation Groundspeed Altitude Reporting Facility
EST Latitude Longitude Course Direction KTS MPH feet Rate Location/Type
Fri 10:31:45 AM 39.1667 -76.7000 288° West 151 174 1,500  Level Potomac TRACON
Fri 10:32:45 AM 39.1833 -76.7667 288° West 199 229 3,800 2,300 Climbing Potomac TRACON
Fri 10:33:45 AM 39.2000 -76.8667 282° West 247 284 6,100 3,150 Climbing Potomac TRACON
Fri 10:34:45 AM 39.2167 -76.9500 284° West 273 314 10,100 3,194 Climbing Potomac TRACON
Fri 10:37:06 AM 39.1778 -77.1928 258° West 326 375 16,800 2,703 Climbing Washington Center
Fri 10:38:07 AM 39.0872 -77.2683 213° Southwest 336 387 19,200 2,579 Climbing Washington Center
Fri 10:39:07 AM 39.0006 -77.3544 218° Southwest 366 421 22,000 1,900 Climbing Washington Center
Fri 10:40:07 AM 38.9756 -77.4900 257° West 372 428 23,000 1,388 Climbing Washington Center
Fri 10:41:08 AM 38.9481 -77.6414 257° West 386 444 24,800 1,815 Climbing Washington Center
Fri 10:42:06 AM 38.9269 -77.7717 258° West 417 480 26,600 1,613 Climbing Washington Center
Fri 10:43:07 AM 38.8989 -77.9361 258° West 422 486 28,000 694 Climbing Washington Center
Fri 10:44:07 AM 38.8731 -78.0819 257° West 427 491 28,000  Level Washington Center
Fri 10:45:08 AM 38.8511 -78.2306 259° West 427 491 28,000 403 Level Washington Center
Fri 10:46:06 AM 38.8497 -78.3797 269° West 427 491 28,800 1,311 Climbing Washington Center
Fri 10:47:07 AM 38.8439 -78.5369 267° West 427 491 30,600 2,213 Climbing Washington Center
Fri 10:48:08 AM 38.8236 -78.6853 260° West 427 491 33,300 2,824 Climbing Washington Center
Fri 10:49:06 AM 38.8033 -78.8256 260° West 421 484 36,200 2,118 Climbing Washington Center
Fri 10:50:07 AM 38.7850 -78.9553 260° West 397 457 37,500 893 Climbing Washington Center
Fri 10:51:07 AM 38.7667 -79.0850 260° West 385 443 38,000 248 Climbing Washington Center
Fri 10:52:08 AM 38.7461 -79.2197 259° West 380 437 38,000  Level Washington Center
Fri 10:53:08 AM 38.7361 -79.3444 264° West 391 450 38,000  Level Washington Center
Fri 10:54:06 AM 38.7147 -79.4922 260° West 391 450 38,000  Level Washington Center
Fri 10:55:06 AM 38.6914 -79.6267 258° West 391 450 38,000  Level Washington Center
Fri 10:56:07 AM 38.6722 -79.7614 260° West 391 450 38,000  Level Washington Center
Fri 10:57:07 AM 38.6508 -79.8931 258° West 391 450 38,000  Level Washington Center
Fri 10:58:07 AM 38.6339 -80.0169 260° West 391 450 38,000  Level Washington Center
Fri 10:59:38 AM 38.5986 -80.2203 258° West 384 442 38,000  Level Indianapolis Center
Fri 11:00:40 AM 38.5794 -80.3489 259° West 381 438 38,000  Level Indianapolis Center
Fri 11:01:41 AM 38.5592 -80.4806 259° West 382 440 38,000  Level Indianapolis Center
Fri 11:02:43 AM 38.5383 -80.6136 259° West 381 438 38,000  Level Indianapolis Center
Fri 11:03:44 AM 38.5131 -80.7753 259° West 386 444 38,000  Level Indianapolis Center
Fri 11:04:46 AM 38.4922 -80.9086 259° West 382 440 38,000  Level Indianapolis Center
Fri 11:05:47 AM 38.4697 -81.0442 258° West 387 445 38,000  Level Indianapolis Center
Fri 11:06:49 AM 38.4481 -81.1803 259° West 389 448 38,000  Level Indianapolis Center
Fri 11:07:51 AM 38.4250 -81.3175 258° West 392 451 38,000  Level Indianapolis Center
Fri 11:08:52 AM 38.4031 -81.4539 258° West 389 448 38,000  Level Indianapolis Center
Fri 11:09:54 AM 38.3808 -81.5919 258° West 392 451 38,000  Level Indianapolis Center
Fri 11:10:55 AM 38.3581 -81.7275 258° West 389 448 38,000  Level Indianapolis Center
Fri 11:11:56 AM 38.3247 -81.8614 252° West 393 452 38,000  Level Indianapolis Center
Fri 11:12:58 AM 38.2883 -81.9922 251° West 393 452 38,000  Level Indianapolis Center
Fri 11:13:59 AM 38.2508 -82.1244 250° West 394 453 38,000  Level Indianapolis Center
Fri 11:15:01 AM 38.2131 -82.2567 250° West 397 457 38,000  Level Indianapolis Center
Fri 11:16:02 AM 38.1758 -82.3883 250° West 394 453 38,000  Level Indianapolis Center
Fri 11:17:04 AM 38.1275 -82.5442 249° West 396 456 38,000  Level Indianapolis Center
Fri 11:18:05 AM 38.0700 -82.6625 238° Southwest 397 457 38,000  Level Indianapolis Center
Fri 11:19:06 AM 38.0147 -82.7836 240° Southwest 397 457 38,000  Level Indianapolis Center
Fri 11:20:08 AM 37.9594 -82.9036 240° Southwest 395 455 38,000  Level Indianapolis Center
Fri 11:21:09 AM 37.9019 -83.0258 239° Southwest 403 464 38,000 -293 Level Indianapolis Center
Fri 11:22:11 AM 37.8458 -83.1475 240° Southwest 403 464 37,400 -780 Descending Indianapolis Center
Fri 11:23:12 AM 37.7889 -83.2661 239° Southwest 398 458 36,400 -1,011 Descending Indianapolis Center
Fri 11:25:15 AM 37.6656 -83.5261 239° Southwest 400 460 34,300 -778 Descending Indianapolis Center
Fri 11:26:17 AM 37.6078 -83.6494 239° Southwest 407 468 34,000 -146 Descending Indianapolis Center
Fri 11:27:18 AM 37.5483 -83.7725 239° Southwest 411 473 34,000 -541 Level Indianapolis Center
Fri 11:28:19 AM 37.4897 -83.8947 239° Southwest 410 472 32,900 -976 Descending Indianapolis Center
Fri 11:29:21 AM 37.4292 -84.0200 239° Southwest 417 480 32,000 -927 Descending Indianapolis Center
Fri 11:30:22 AM 37.3689 -84.1467 239° Southwest 421 484 31,000 -1,073 Descending Indianapolis Center
Fri 11:31:24 AM 37.2978 -84.2961 239° Southwest 426 490 29,800 -1,073 Descending Indianapolis Center
Fri 11:32:25 AM 37.2342 -84.4250 238° Southwest 434 499 28,800 -976 Descending Indianapolis Center
Fri 11:33:27 AM 37.1703 -84.5569 239° Southwest 441 507 27,800 -927 Descending Indianapolis Center
Fri 11:34:28 AM 37.1042 -84.6906 238° Southwest 448 516 26,900 -976 Descending Indianapolis Center
Fri 11:35:30 AM 37.0303 -84.8394 238° Southwest 454 522 25,800 -1,024 Descending Indianapolis Center
Fri 11:36:31 AM 36.9650 -84.9719 238° Southwest 450 518 24,800 -1,024 Descending Indianapolis Center
Fri 11:37:33 AM 36.9006 -85.1036 239° Southwest 446 513 23,700 -1,024 Descending Indianapolis Center
Fri 11:38:34 AM 36.8353 -85.2314 237° Southwest 441 507 22,700 -829 Descending Indianapolis Center
Fri 11:39:36 AM 36.7717 -85.3581 238° Southwest 432 497 22,000 -408 Descending Indianapolis Center
Fri 11:40:17 AM 36.7244 -85.4514 238° Southwest 441 507 22,000  Level Memphis Center
Fri 11:41:17 AM 36.6764 -85.5578 241° Southwest 406 467 22,000 -500 Level Memphis Center
Fri 11:42:17 AM 36.6167 -85.6831 239° Southwest 389 448 21,000 -1,550 Descending Memphis Center
Fri 11:43:17 AM 36.5664 -85.7892 239° Southwest 383 441 18,900 -1,950 Descending Memphis Center
Fri 11:44:17 AM 36.5161 -85.8978 240° Southwest 377 434 17,100 -2,000 Descending Memphis Center
Fri 11:45:17 AM 36.4678 -86.0011 240° Southwest 358 412 14,900 -2,200 Descending Memphis Center
Fri 11:46:17 AM 36.4192 -86.1044 240° Southwest 353 406 12,700 -2,150 Descending Memphis Center
Fri 11:47:17 AM 36.3703 -86.2022 238° Southwest 346 398 10,600 -1,400 Descending Memphis Center
Fri 11:48:17 AM 36.3253 -86.2922 238° Southwest 328 377 9,900 -1,050 Descending Memphis Center
Fri 11:49:17 AM 36.2844 -86.3792 240° Southwest 300 345 8,500 -1,300 Descending Memphis Center
Fri 11:50:17 AM 36.2492 -86.4506 239° Southwest 286 329 7,300 -1,150 Descending Memphis Center
Fri 11:51:17 AM 36.2056 -86.5244 234° Southwest 281 323 6,200 -950 Descending Memphis Center
Fri 11:52:17 AM 36.1397 -86.5481 196° South 250 288 5,400 -800 Descending Memphis Center
Fri 11:53:17 AM 36.0778 -86.5742 199° South 240 276 4,600 -900 Descending Memphis Center
Fri 11:54:17 AM 36.0119 -86.6028 199° South 240 276 3,600 -800 Descending Memphis Center
Fri 11:55:17 AM 35.9564 -86.6258 199° South 229 264 3,000 -500 Descending Memphis Center
Fri 11:56:17 AM 35.9244 -86.6683 227° Southwest 176 203 2,600 -250 Descending Memphis Center
Fri 11:57:17 AM 35.9553 -86.7233 305° West 145 167 2,500 -79 Descending Memphis Center
Fri 11:58:49 AM 36.0333 -86.7000 14° North 184 212 2,400 -477 Descending Nashville TRACON
Fri 12:00:13 PM 36.0833 -86.6667 28° Northeast 129 148 1,100 -929 Descending Nashville TRACON
Fri 12:02:00 PM 36.1167 -86.6667 North  Level FlightAware Approximate
Fri 12:09:00 PM 36.1245 -86.6782 North  Level Estimated
Fri 12:10:00 PM 36.1245 -86.6782 North  Level Estimated
Fri 12:11:00 PM 36.1245 -86.6782 North  Level Estimated
Fri 12:12:00 PM 36.1245 -86.6782 North  Level Estimated
Fri 12:13:00 PM 36.1245 -86.6782 North  Level Estimated
Fri 12:14:00 PM 36.1245 -86.6782 North  Level Estimated
Fri 12:15:00 PM 36.1245 -86.6782 North  Level Estimated

Login

Don't have an account? Register now (free) for customized features, flight alerts, and more!